createdAt,value
2023-01-05T04:16:41.780Z,2.10
2023-01-05T04:23:09.394Z,1.77
2023-01-05T04:26:12.099Z,1.70
2023-01-05T04:29:15.158Z,2.40
2023-01-05T04:32:08.973Z,1.60
2023-01-05T04:42:19.424Z,2.70
2023-01-05T04:45:16.606Z,2.00
2023-01-05T04:48:16.566Z,2.33
2023-01-05T04:51:15.950Z,2.33
2023-01-05T04:54:13.266Z,2.13
2023-01-05T04:57:24.376Z,2.17
2023-01-05T05:00:50.456Z,1.60
2023-01-05T05:03:45.691Z,1.70
2023-01-05T05:06:40.287Z,2.23
2023-01-05T05:09:34.076Z,1.53
2023-01-05T05:12:26.784Z,2.10
2023-01-05T05:15:20.461Z,2.63
2023-01-05T05:18:29.028Z,1.83
2023-01-05T05:21:35.775Z,2.10
2023-01-05T05:24:33.969Z,2.43
2023-01-05T05:27:26.320Z,2.50
2023-01-05T05:30:24.944Z,2.20
2023-01-05T06:54:36.071Z,1.70
2023-01-05T06:57:58.691Z,1.30
2023-01-05T07:01:09.136Z,2.00
2023-01-05T07:09:41.500Z,1.40
2023-01-05T07:31:36.712Z,1.70
2023-01-05T07:34:31.774Z,1.03
2023-01-05T07:37:46.247Z,1.47
2023-01-05T07:54:07.991Z,0.87
2023-01-05T08:00:51.200Z,1.20
2023-01-05T08:12:18.633Z,1.80
2023-01-05T08:16:27.426Z,1.80
2023-01-05T08:31:55.995Z,1.00
2023-01-05T08:34:55.831Z,1.33
2023-01-05T08:42:43.175Z,1.27
2023-01-05T08:53:40.351Z,1.13
2023-01-05T08:56:50.598Z,1.00
2023-01-05T09:05:09.276Z,1.03
2023-01-05T09:08:54.509Z,1.00
2023-01-05T09:12:40.947Z,1.00
2023-01-05T09:28:47.435Z,0.97
2023-01-05T10:00:06.250Z,2.07
2023-01-05T11:20:12.080Z,2.00
2023-01-05T17:07:22.148Z,2.40
2023-01-05T17:15:12.931Z,2.30
2023-01-05T17:19:19.886Z,3.30
2023-01-05T17:51:58.194Z,1.97
2023-01-05T17:58:09.886Z,2.60
2023-01-05T18:01:15.167Z,2.50
2023-01-05T18:04:33.284Z,1.87
2023-01-05T22:51:27.028Z,2.20
2023-01-05T22:54:15.778Z,2.70
2023-01-05T22:57:05.533Z,1.90
2023-01-05T22:59:54.058Z,2.20
2023-01-05T23:02:45.823Z,1.97
2023-01-05T23:05:34.355Z,5.43
2023-01-05T23:08:24.823Z,5.97
2023-01-05T23:11:16.568Z,9.80
2023-01-05T23:14:06.946Z,4.90
2023-01-05T23:16:55.636Z,5.07
2023-01-05T23:19:44.081Z,5.97
2023-01-05T23:22:32.428Z,2.30
2023-01-05T23:25:22.125Z,2.50
2023-01-05T23:28:10.415Z,2.07
2023-01-05T23:31:07.784Z,1.70
2023-01-05T23:33:58.859Z,2.10
2023-01-05T23:36:47.242Z,2.73
2023-01-05T23:39:35.658Z,2.83
2023-01-05T23:42:42.768Z,2.40
2023-01-05T23:45:31.180Z,2.77
2023-01-05T23:48:20.041Z,3.33
2023-01-05T23:51:14.130Z,2.80
2023-01-05T23:54:02.525Z,2.17
2023-01-05T23:56:51.286Z,2.20
2023-01-05T23:59:55.953Z,2.30
